createdAt,value
2019-03-15T00:00:48.337Z,85.88
2019-03-15T00:04:50.232Z,85.82
2019-03-15T00:08:52.133Z,86.28
2019-03-15T00:12:54.047Z,87.08
2019-03-15T00:16:55.956Z,87.53
2019-03-15T00:20:57.854Z,87.71
2019-03-15T00:24:59.754Z,86.85
2019-03-15T00:29:01.816Z,87.50
2019-03-15T00:33:03.696Z,86.97
2019-03-15T00:37:05.606Z,85.97
2019-03-15T00:41:07.859Z,86.05
2019-03-15T00:45:11.564Z,85.53
2019-03-15T00:49:13.561Z,85.14
2019-03-15T00:53:15.451Z,84.67
2019-03-15T00:57:17.355Z,84.29
2019-03-15T01:01:20.494Z,84.50
2019-03-15T01:05:22.488Z,84.55
2019-03-15T01:09:24.390Z,84.18
2019-03-15T01:13:26.319Z,84.04
2019-03-15T01:17:28.208Z,84.31
2019-03-15T01:21:30.108Z,84.04
2019-03-15T01:25:31.989Z,84.71
2019-03-15T01:29:34.907Z,85.10
2019-03-15T01:33:36.800Z,84.99
2019-03-15T01:37:38.695Z,84.86
2019-03-15T01:41:40.605Z,84.97
2019-03-15T01:45:43.457Z,84.81
2019-03-15T01:49:45.499Z,85.07
2019-03-15T01:53:48.421Z,85.07
2019-03-15T01:57:50.438Z,85.35
2019-03-15T02:01:52.352Z,85.13
2019-03-15T02:05:54.252Z,85.39
2019-03-15T02:09:56.201Z,85.51
2019-03-15T02:13:58.085Z,85.57
2019-03-15T02:17:59.997Z,86.04
2019-03-15T02:22:01.904Z,86.41
2019-03-15T02:26:03.913Z,86.21
2019-03-15T02:30:10.317Z,86.65
2019-03-15T02:34:12.233Z,86.93
2019-03-15T02:38:14.111Z,86.21
2019-03-15T02:42:16.005Z,86.48
2019-03-15T02:46:17.908Z,86.44
2019-03-15T02:50:19.811Z,86.49
2019-03-15T02:54:21.710Z,86.20
2019-03-15T02:58:23.615Z,86.35
2019-03-15T03:02:25.510Z,86.19
2019-03-15T03:06:28.085Z,85.53
2019-03-15T03:10:30.379Z,85.10
2019-03-15T03:14:32.278Z,84.62
2019-03-15T03:18:34.976Z,85.05
2019-03-15T03:22:36.881Z,84.85
2019-03-15T03:26:40.117Z,84.93
2019-03-15T03:30:42.649Z,84.98
2019-03-15T03:34:45.906Z,85.13
2019-03-15T03:38:47.817Z,85.35
2019-03-15T03:42:49.740Z,85.33
2019-03-15T03:46:52.481Z,85.63
2019-03-15T03:50:54.638Z,85.95
2019-03-15T03:54:57.647Z,86.62
2019-03-15T03:58:59.606Z,86.70
2019-03-15T04:03:01.682Z,86.93
2019-03-15T04:07:03.725Z,86.93
2019-03-15T04:11:05.638Z,86.79
2019-03-15T04:15:10.513Z,86.46
2019-03-15T04:19:12.423Z,86.41
2019-03-15T04:23:14.342Z,86.79
2019-03-15T04:27:16.245Z,87.08
2019-03-15T04:31:18.169Z,87.20
2019-03-15T04:35:20.065Z,87.03
2019-03-15T04:39:22.188Z,86.98
2019-03-15T04:43:24.084Z,86.40
2019-03-15T04:47:26.230Z,86.28
2019-03-15T04:51:28.136Z,86.58
2019-03-15T04:55:30.333Z,86.27
2019-03-15T04:59:32.809Z,86.26
2019-03-15T05:03:35.033Z,86.26
2019-03-15T05:07:37.095Z,86.60
2019-03-15T05:11:38.919Z,86.51
2019-03-15T05:15:40.847Z,86.56
2019-03-15T05:19:42.725Z,86.63
2019-03-15T05:24:03.707Z,86.41
2019-03-15T05:28:05.788Z,86.23
2019-03-15T05:32:07.703Z,85.86
2019-03-15T05:36:09.588Z,85.87
2019-03-15T05:40:11.660Z,86.01
2019-03-15T05:44:13.567Z,85.72
2019-03-15T05:48:15.467Z,85.72
2019-03-15T05:52:17.536Z,85.71
2019-03-15T05:56:19.431Z,85.75
2019-03-15T06:00:21.343Z,85.65
2019-03-15T06:04:23.256Z,85.38
2019-03-15T06:08:27.567Z,85.30
2019-03-15T06:12:28.769Z,84.79
2019-03-15T06:16:30.664Z,84.20
2019-03-15T06:20:32.586Z,83.78
2019-03-15T06:24:35.142Z,84.16
2019-03-15T06:28:37.122Z,84.26
2019-03-15T06:32:39.171Z,84.26
2019-03-15T06:36:41.075Z,84.64
2019-03-15T06:40:42.986Z,84.22
2019-03-15T06:44:57.040Z,84.20
2019-03-15T06:48:48.548Z,84.12
2019-03-15T06:52:50.461Z,83.46
2019-03-15T06:56:52.352Z,83.20
2019-03-15T07:00:54.946Z,82.74
2019-03-15T07:04:58.009Z,83.18
2019-03-15T07:08:59.920Z,83.13
2019-03-15T07:13:01.832Z,82.74
2019-03-15T07:17:03.730Z,82.49
2019-03-15T07:21:05.637Z,82.24
2019-03-15T07:25:10.020Z,82.14
2019-03-15T07:29:13.542Z,81.44
2019-03-15T07:33:15.457Z,80.43
2019-03-15T07:37:17.345Z,80.37
2019-03-15T07:41:19.251Z,80.46
2019-03-15T07:45:21.193Z,79.46
2019-03-15T07:49:23.084Z,79.52
2019-03-15T07:53:25.008Z,79.76
2019-03-15T07:57:26.915Z,79.04
2019-03-15T08:01:28.827Z,78.65
2019-03-15T08:05:31.825Z,77.77
2019-03-15T08:09:33.742Z,77.54
2019-03-15T08:13:35.656Z,77.83
2019-03-15T08:17:37.593Z,77.92
2019-03-15T08:21:39.492Z,78.47
2019-03-15T08:25:42.477Z,77.41
2019-03-15T08:29:44.373Z,76.41
2019-03-15T08:33:46.289Z,77.14
2019-03-15T08:37:48.385Z,78.45
2019-03-15T08:41:50.287Z,78.50
2019-03-15T08:45:52.346Z,79.88
2019-03-15T08:49:54.319Z,81.06
2019-03-15T08:53:56.240Z,82.03
2019-03-15T08:57:58.137Z,83.09
2019-03-15T09:02:00.037Z,82.73
2019-03-15T09:06:01.954Z,83.51
2019-03-15T09:10:05.198Z,83.53
2019-03-15T09:14:07.206Z,84.29
2019-03-15T09:18:09.145Z,82.67
2019-03-15T09:22:11.127Z,83.14
2019-03-15T09:26:13.071Z,84.60
2019-03-15T09:30:23.736Z,84.53
2019-03-15T09:34:22.520Z,85.68
2019-03-15T09:38:24.400Z,86.02
2019-03-15T09:42:26.320Z,86.47
2019-03-15T09:46:28.220Z,86.99
2019-03-15T09:50:40.069Z,86.74
2019-03-15T09:54:33.770Z,86.86
2019-03-15T09:58:35.760Z,86.60
2019-03-15T10:02:37.666Z,86.39
2019-03-15T10:06:39.569Z,86.41
2019-03-15T10:14:49.582Z,87.13
2019-03-15T10:18:51.492Z,87.28
2019-03-15T10:23:05.488Z,86.70
2019-03-15T10:26:57.020Z,87.47
2019-03-15T10:30:58.930Z,87.61
2019-03-15T10:35:01.670Z,87.71
2019-03-15T10:39:03.866Z,87.53
2019-03-15T10:43:05.746Z,87.13
2019-03-15T10:47:07.699Z,87.00
2019-03-15T10:51:09.646Z,86.88
2019-03-15T10:55:11.792Z,85.02
2019-03-15T10:59:13.693Z,85.87
2019-03-15T11:03:15.592Z,86.51
2019-03-15T11:07:17.492Z,85.88
2019-03-15T11:11:19.387Z,86.43
2019-03-15T11:15:21.336Z,87.03
2019-03-15T11:19:23.238Z,87.32
2019-03-15T11:23:25.130Z,87.18
2019-03-15T11:27:27.034Z,87.89
2019-03-15T11:31:28.937Z,87.41
2019-03-15T11:35:49.249Z,87.06
2019-03-15T11:40:09.376Z,87.25
2019-03-15T11:44:11.605Z,87.68
2019-03-15T11:48:13.491Z,87.84
2019-03-15T11:52:15.393Z,87.89
2019-03-15T11:56:26.887Z,88.10
2019-03-15T12:00:21.528Z,88.64
2019-03-15T12:04:23.428Z,88.95
2019-03-15T12:08:25.416Z,89.42
2019-03-15T12:12:27.320Z,89.60
2019-03-15T12:16:29.244Z,89.71
2019-03-15T12:20:31.143Z,89.27
2019-03-15T12:24:33.070Z,89.49
2019-03-15T12:28:35.451Z,89.65
2019-03-15T12:32:37.448Z,89.72
2019-03-15T12:36:39.339Z,90.34
2019-03-15T12:40:41.251Z,90.01
2019-03-15T12:44:43.140Z,90.28
2019-03-15T12:48:45.038Z,89.92
2019-03-15T12:52:48.532Z,90.13
2019-03-15T12:56:53.992Z,90.14
2019-03-15T13:00:54.221Z,90.52
2019-03-15T13:04:56.112Z,90.66
2019-03-15T13:08:58.013Z,91.04
2019-03-15T13:12:59.914Z,91.42
2019-03-15T13:17:01.834Z,91.21
2019-03-15T13:21:03.737Z,91.65
2019-03-15T13:25:09.405Z,91.79
2019-03-15T13:29:11.304Z,92.02
2019-03-15T13:33:20.442Z,92.36
2019-03-15T13:37:16.808Z,92.73
2019-03-15T13:41:18.705Z,93.00
2019-03-15T13:45:20.606Z,92.99
2019-03-15T13:49:22.519Z,93.15
2019-03-15T13:53:24.407Z,93.25
2019-03-15T13:57:26.303Z,93.40
2019-03-15T14:01:28.211Z,93.55
2019-03-15T14:05:30.099Z,93.68
2019-03-15T14:09:32.008Z,93.70
2019-03-15T14:13:33.900Z,94.08
2019-03-15T14:17:35.876Z,93.97
2019-03-15T14:21:37.786Z,93.93
2019-03-15T14:25:39.682Z,93.78
2019-03-15T14:29:41.652Z,93.84
2019-03-15T14:33:43.617Z,93.55
2019-03-15T14:37:45.767Z,93.58
2019-03-15T14:41:47.851Z,93.44
2019-03-15T14:45:49.820Z,93.27
2019-03-15T14:49:51.825Z,92.93
2019-03-15T14:53:53.720Z,92.82
2019-03-15T14:58:00.015Z,92.90
2019-03-15T15:02:00.379Z,92.99
2019-03-15T15:06:02.274Z,92.94
2019-03-15T15:10:05.925Z,92.69
2019-03-15T15:14:15.848Z,92.66
2019-03-15T15:18:17.813Z,92.68
2019-03-15T15:22:19.813Z,92.40
2019-03-15T15:26:21.696Z,92.15
2019-03-15T15:30:23.599Z,92.17
2019-03-15T15:34:25.505Z,91.86
2019-03-15T15:38:27.432Z,91.95
2019-03-15T15:42:29.345Z,91.90
2019-03-15T15:46:31.259Z,92.10
2019-03-15T15:50:33.160Z,91.76
2019-03-15T15:54:35.737Z,91.65
2019-03-15T15:58:37.646Z,91.42
2019-03-15T16:02:39.552Z,91.73
2019-03-15T16:06:41.906Z,91.93
2019-03-15T16:10:43.848Z,91.83
2019-03-15T16:14:52.437Z,92.34
2019-03-15T16:18:54.551Z,92.68
2019-03-15T16:22:56.570Z,93.02
2019-03-15T16:26:58.502Z,92.84
2019-03-15T16:31:00.448Z,92.89
2019-03-15T16:35:02.367Z,92.90
2019-03-15T16:39:05.825Z,92.83
2019-03-15T16:43:07.748Z,93.18
2019-03-15T16:47:09.713Z,92.92
2019-03-15T16:51:19.506Z,92.71
2019-03-15T16:55:15.891Z,92.35
2019-03-15T16:59:17.990Z,91.87
2019-03-15T17:03:19.917Z,91.90
2019-03-15T17:07:21.828Z,92.25
2019-03-15T17:11:23.733Z,92.14
2019-03-15T17:15:30.118Z,92.41
2019-03-15T17:19:32.147Z,92.45
2019-03-15T17:23:34.073Z,92.59
2019-03-15T17:27:35.965Z,92.42
2019-03-15T17:31:37.881Z,92.52
2019-03-15T17:35:39.778Z,92.41
2019-03-15T17:39:44.044Z,92.59
2019-03-15T17:43:45.274Z,92.64
2019-03-15T17:47:47.580Z,92.23
2019-03-15T17:51:49.481Z,92.28
2019-03-15T17:55:51.369Z,92.51
2019-03-15T18:00:19.497Z,92.57
2019-03-15T18:04:21.399Z,91.82
2019-03-15T18:08:23.318Z,92.10
2019-03-15T18:12:25.609Z,91.93
2019-03-15T18:16:27.534Z,91.66
2019-03-15T18:20:30.392Z,91.57
2019-03-15T18:24:32.545Z,91.17
2019-03-15T18:28:35.732Z,91.53
2019-03-15T18:32:37.629Z,91.62
2019-03-15T18:36:42.807Z,91.03
2019-03-15T18:40:43.394Z,90.80
2019-03-15T18:44:46.198Z,90.53
2019-03-15T18:48:48.189Z,90.22
2019-03-15T18:52:50.183Z,90.33
2019-03-15T18:56:52.127Z,90.60
2019-03-15T19:00:54.045Z,90.62
2019-03-15T19:04:55.961Z,90.29
2019-03-15T19:08:58.030Z,89.96
2019-03-15T19:12:59.903Z,90.13
2019-03-15T19:17:01.809Z,90.05
2019-03-15T19:21:03.804Z,90.03
2019-03-15T19:25:08.225Z,90.14
2019-03-15T19:29:10.123Z,90.25
2019-03-15T19:33:12.989Z,90.05
2019-03-15T19:37:14.933Z,90.64
2019-03-15T19:41:16.835Z,90.44
2019-03-15T19:45:18.913Z,90.91
2019-03-15T19:49:20.861Z,91.27
2019-03-15T19:53:22.743Z,91.13
2019-03-15T19:57:24.641Z,91.57
2019-03-15T20:01:28.994Z,91.53
2019-03-15T20:05:30.187Z,91.17
2019-03-15T20:09:32.097Z,91.52
2019-03-15T20:13:34.035Z,91.59
2019-03-15T20:17:35.953Z,91.32
2019-03-15T20:21:37.848Z,91.18
2019-03-15T20:25:39.745Z,90.82
2019-03-15T20:29:42.622Z,90.69
2019-03-15T20:33:44.525Z,90.78
2019-03-15T20:37:46.429Z,90.22
2019-03-15T20:41:48.407Z,90.68
2019-03-15T20:45:50.380Z,91.13
2019-03-15T20:49:52.292Z,90.89
2019-03-15T20:53:54.189Z,90.82
2019-03-15T20:57:56.157Z,90.70
2019-03-15T21:01:58.029Z,91.00
2019-03-15T21:06:00.000Z,90.60
2019-03-15T21:10:01.915Z,90.24
2019-03-15T21:14:03.921Z,90.75
2019-03-15T21:18:05.808Z,90.86
2019-03-15T21:22:07.775Z,90.65
2019-03-15T21:26:09.675Z,90.69
2019-03-15T21:30:27.523Z,90.14
2019-03-15T21:34:29.404Z,90.32
2019-03-15T21:38:31.663Z,90.15
2019-03-15T21:42:33.626Z,90.45
2019-03-15T21:46:35.782Z,90.39
2019-03-15T21:50:37.675Z,90.19
2019-03-15T21:54:39.611Z,90.85
2019-03-15T21:58:41.548Z,91.11
2019-03-15T22:02:43.481Z,90.84
2019-03-15T22:06:45.374Z,90.93
2019-03-15T22:10:47.273Z,91.06
2019-03-15T22:14:49.171Z,91.27
2019-03-15T22:18:51.080Z,91.19
2019-03-15T22:22:53.988Z,91.24
2019-03-15T22:26:55.895Z,91.00
2019-03-15T22:30:57.797Z,91.04
2019-03-15T22:34:59.689Z,91.21
2019-03-15T22:39:01.670Z,91.26
2019-03-15T22:43:04.949Z,91.50
2019-03-15T22:47:06.865Z,91.10
2019-03-15T22:51:08.757Z,90.90
2019-03-15T22:55:11.865Z,90.40
2019-03-15T22:59:13.767Z,90.56
2019-03-15T23:03:15.690Z,90.58
2019-03-15T23:07:17.622Z,90.26
2019-03-15T23:11:19.520Z,90.12
2019-03-15T23:15:21.429Z,90.29
2019-03-15T23:19:23.657Z,90.18
2019-03-15T23:23:25.550Z,89.50
2019-03-15T23:27:28.522Z,90.25
2019-03-15T23:31:42.632Z,90.74
2019-03-15T23:35:34.015Z,90.67
2019-03-15T23:39:35.955Z,90.61
2019-03-15T23:43:37.853Z,89.79
2019-03-15T23:47:39.826Z,89.95
2019-03-15T23:51:41.725Z,90.16
2019-03-15T23:55:43.619Z,90.09
2019-03-15T23:59:45.546Z,90.13
